sensor_id;sensor_type;location;lat;lon;timestamp;P1;durP1;ratioP1;P2;durP2;ratioP2
69712;SDS011;56980;51.826;4.424;2022-11-11T00:00:22;20.67;;;12.20;;
69712;SDS011;56980;51.826;4.424;2022-11-11T00:02:48;25.27;;;12.02;;
69712;SDS011;56980;51.826;4.424;2022-11-11T00:05:14;24.30;;;12.13;;
69712;SDS011;56980;51.826;4.424;2022-11-11T00:07:40;24.52;;;13.00;;
69712;SDS011;56980;51.826;4.424;2022-11-11T00:10:06;22.07;;;12.33;;
69712;SDS011;56980;51.826;4.424;2022-11-11T00:12:32;29.00;;;12.95;;
69712;SDS011;56980;51.826;4.424;2022-11-11T00:14:57;26.97;;;12.47;;
69712;SDS011;56980;51.826;4.424;2022-11-11T00:17:22;29.40;;;12.93;;
69712;SDS011;56980;51.826;4.424;2022-11-11T00:20:08;32.97;;;13.05;;
69712;SDS011;56980;51.826;4.424;2022-11-11T00:22:53;22.55;;;12.32;;
69712;SDS011;56980;51.826;4.424;2022-11-11T00:25:37;26.45;;;12.43;;
69712;SDS011;56980;51.826;4.424;2022-11-11T00:28:02;25.93;;;12.67;;
69712;SDS011;56980;51.826;4.424;2022-11-11T00:30:28;20.20;;;12.33;;
69712;SDS011;56980;51.826;4.424;2022-11-11T00:32:53;27.42;;;12.43;;
69712;SDS011;56980;51.826;4.424;2022-11-11T00:35:19;23.40;;;11.87;;
69712;SDS011;56980;51.826;4.424;2022-11-11T00:38:10;22.75;;;12.63;;
69712;SDS011;56980;51.826;4.424;2022-11-11T00:41:00;21.60;;;11.82;;
69712;SDS011;56980;51.826;4.424;2022-11-11T00:43:25;30.80;;;12.30;;
69712;SDS011;56980;51.826;4.424;2022-11-11T00:45:51;23.90;;;11.90;;
69712;SDS011;56980;51.826;4.424;2022-11-11T00:48:16;25.80;;;13.07;;
69712;SDS011;56980;51.826;4.424;2022-11-11T00:51:00;23.30;;;12.70;;
69712;SDS011;56980;51.826;4.424;2022-11-11T00:53:27;24.80;;;13.63;;
69712;SDS011;56980;51.826;4.424;2022-11-11T00:55:54;23.55;;;12.32;;
69712;SDS011;56980;51.826;4.424;2022-11-11T00:58:20;26.65;;;13.52;;
69712;SDS011;56980;51.826;4.424;2022-11-11T01:00:47;29.08;;;12.82;;
69712;SDS011;56980;51.826;4.424;2022-11-11T01:03:14;24.23;;;12.32;;
69712;SDS011;56980;51.826;4.424;2022-11-11T01:05:40;23.13;;;13.27;;
69712;SDS011;56980;51.826;4.424;2022-11-11T01:08:05;27.53;;;13.33;;
69712;SDS011;56980;51.826;4.424;2022-11-11T01:10:30;30.80;;;13.10;;
69712;SDS011;56980;51.826;4.424;2022-11-11T01:13:03;29.17;;;12.88;;
69712;SDS011;56980;51.826;4.424;2022-11-11T01:15:37;28.92;;;12.70;;
69712;SDS011;56980;51.826;4.424;2022-11-11T01:18:07;24.52;;;12.70;;
69712;SDS011;56980;51.826;4.424;2022-11-11T01:20:33;27.73;;;13.85;;
69712;SDS011;56980;51.826;4.424;2022-11-11T01:22:58;26.37;;;13.73;;
69712;SDS011;56980;51.826;4.424;2022-11-11T01:25:24;29.90;;;14.07;;
69712;SDS011;56980;51.826;4.424;2022-11-11T01:27:49;34.60;;;14.10;;
69712;SDS011;56980;51.826;4.424;2022-11-11T01:30:15;33.97;;;13.77;;
69712;SDS011;56980;51.826;4.424;2022-11-11T01:32:40;25.20;;;12.98;;
69712;SDS011;56980;51.826;4.424;2022-11-11T01:35:06;30.17;;;14.93;;
69712;SDS011;56980;51.826;4.424;2022-11-11T01:37:32;32.60;;;14.43;;
69712;SDS011;56980;51.826;4.424;2022-11-11T01:39:58;30.95;;;13.40;;
69712;SDS011;56980;51.826;4.424;2022-11-11T01:42:24;32.30;;;13.90;;
69712;SDS011;56980;51.826;4.424;2022-11-11T01:44:49;28.03;;;12.93;;
69712;SDS011;56980;51.826;4.424;2022-11-11T01:47:15;29.23;;;13.30;;
69712;SDS011;56980;51.826;4.424;2022-11-11T01:54:55;32.83;;;13.85;;
69712;SDS011;56980;51.826;4.424;2022-11-11T01:59:54;25.67;;;14.32;;
69712;SDS011;56980;51.826;4.424;2022-11-11T02:03:07;40.67;;;14.77;;
69712;SDS011;56980;51.826;4.424;2022-11-11T02:05:14;31.10;;;14.88;;
69712;SDS011;56980;51.826;4.424;2022-11-11T02:08:18;29.00;;;14.32;;
69712;SDS011;56980;51.826;4.424;2022-11-11T02:14:04;32.28;;;14.75;;
69712;SDS011;56980;51.826;4.424;2022-11-11T02:16:48;36.25;;;15.88;;
69712;SDS011;56980;51.826;4.424;2022-11-11T02:19:13;35.67;;;16.33;;
69712;SDS011;56980;51.826;4.424;2022-11-11T02:21:48;27.63;;;14.73;;
69712;SDS011;56980;51.826;4.424;2022-11-11T02:24:19;31.05;;;14.95;;
69712;SDS011;56980;51.826;4.424;2022-11-11T02:26:46;31.60;;;13.85;;
69712;SDS011;56980;51.826;4.424;2022-11-11T02:29:13;33.10;;;14.48;;
69712;SDS011;56980;51.826;4.424;2022-11-11T02:31:42;27.67;;;14.60;;
69712;SDS011;56980;51.826;4.424;2022-11-11T02:34:08;34.90;;;14.67;;
69712;SDS011;56980;51.826;4.424;2022-11-11T02:36:33;35.10;;;15.57;;
69712;SDS011;56980;51.826;4.424;2022-11-11T02:39:00;29.98;;;15.00;;
69712;SDS011;56980;51.826;4.424;2022-11-11T02:41:26;32.97;;;13.87;;
69712;SDS011;56980;51.826;4.424;2022-11-11T02:44:10;28.83;;;15.25;;
69712;SDS011;56980;51.826;4.424;2022-11-11T02:46:35;33.70;;;14.57;;
69712;SDS011;56980;51.826;4.424;2022-11-11T02:49:00;33.83;;;14.52;;
69712;SDS011;56980;51.826;4.424;2022-11-11T02:51:26;33.88;;;16.13;;
69712;SDS011;56980;51.826;4.424;2022-11-11T02:53:51;30.40;;;14.37;;
69712;SDS011;56980;51.826;4.424;2022-11-11T02:56:22;30.20;;;14.85;;
69712;SDS011;56980;51.826;4.424;2022-11-11T02:59:07;31.02;;;15.35;;
69712;SDS011;56980;51.826;4.424;2022-11-11T03:01:32;28.15;;;14.25;;
69712;SDS011;56980;51.826;4.424;2022-11-11T03:03:58;28.43;;;13.70;;
69712;SDS011;56980;51.826;4.424;2022-11-11T03:06:23;29.73;;;14.67;;
69712;SDS011;56980;51.826;4.424;2022-11-11T03:08:48;33.77;;;14.50;;
69712;SDS011;56980;51.826;4.424;2022-11-11T03:11:14;29.37;;;14.00;;
69712;SDS011;56980;51.826;4.424;2022-11-11T03:13:39;37.63;;;14.20;;
69712;SDS011;56980;51.826;4.424;2022-11-11T03:16:05;30.67;;;13.07;;
69712;SDS011;56980;51.826;4.424;2022-11-11T03:18:30;32.95;;;14.80;;
69712;SDS011;56980;51.826;4.424;2022-11-11T03:20:56;31.40;;;13.77;;
69712;SDS011;56980;51.826;4.424;2022-11-11T03:23:30;34.20;;;14.02;;
69712;SDS011;56980;51.826;4.424;2022-11-11T03:25:55;30.70;;;14.90;;
69712;SDS011;56980;51.826;4.424;2022-11-11T03:28:21;30.63;;;12.90;;
69712;SDS011;56980;51.826;4.424;2022-11-11T03:30:48;30.38;;;13.23;;
69712;SDS011;56980;51.826;4.424;2022-11-11T03:33:15;29.13;;;13.77;;
69712;SDS011;56980;51.826;4.424;2022-11-11T03:35:41;25.58;;;12.90;;
69712;SDS011;56980;51.826;4.424;2022-11-11T03:38:09;32.33;;;14.50;;
69712;SDS011;56980;51.826;4.424;2022-11-11T03:40:50;27.35;;;13.60;;
69712;SDS011;56980;51.826;4.424;2022-11-11T03:43:18;28.30;;;12.73;;
69712;SDS011;56980;51.826;4.424;2022-11-11T03:45:45;29.65;;;14.10;;
69712;SDS011;56980;51.826;4.424;2022-11-11T03:48:11;32.97;;;13.80;;
69712;SDS011;56980;51.826;4.424;2022-11-11T03:50:36;29.40;;;12.97;;
69712;SDS011;56980;51.826;4.424;2022-11-11T03:53:02;24.75;;;13.32;;
69712;SDS011;56980;51.826;4.424;2022-11-11T03:55:28;27.08;;;13.75;;
69712;SDS011;56980;51.826;4.424;2022-11-11T03:57:53;27.77;;;13.67;;
69712;SDS011;56980;51.826;4.424;2022-11-11T04:00:21;27.45;;;13.48;;
69712;SDS011;56980;51.826;4.424;2022-11-11T04:02:50;25.40;;;12.80;;
69712;SDS011;56980;51.826;4.424;2022-11-11T04:05:34;28.63;;;13.95;;
69712;SDS011;56980;51.826;4.424;2022-11-11T04:08:19;26.55;;;14.23;;
69712;SDS011;56980;51.826;4.424;2022-11-11T04:11:14;23.65;;;12.90;;
69712;SDS011;56980;51.826;4.424;2022-11-11T04:13:44;28.05;;;13.65;;
69712;SDS011;56980;51.826;4.424;2022-11-11T04:16:30;27.87;;;13.07;;
69712;SDS011;56980;51.826;4.424;2022-11-11T04:18:56;25.42;;;12.52;;
69712;SDS011;56980;51.826;4.424;2022-11-11T04:21:39;22.80;;;12.07;;
69712;SDS011;56980;51.826;4.424;2022-11-11T04:24:08;24.90;;;13.05;;
69712;SDS011;56980;51.826;4.424;2022-11-11T04:26:59;30.02;;;13.07;;
69712;SDS011;56980;51.826;4.424;2022-11-11T04:29:27;25.27;;;11.43;;
69712;SDS011;56980;51.826;4.424;2022-11-11T04:31:57;25.17;;;13.80;;
69712;SDS011;56980;51.826;4.424;2022-11-11T04:34:43;24.03;;;12.03;;
69712;SDS011;56980;51.826;4.424;2022-11-11T04:37:13;25.15;;;12.02;;
69712;SDS011;56980;51.826;4.424;2022-11-11T04:39:39;26.98;;;12.27;;
69712;SDS011;56980;51.826;4.424;2022-11-11T04:42:24;22.17;;;11.10;;
69712;SDS011;56980;51.826;4.424;2022-11-11T04:44:52;21.35;;;11.25;;
69712;SDS011;56980;51.826;4.424;2022-11-11T04:47:37;28.30;;;11.63;;
69712;SDS011;56980;51.826;4.424;2022-11-11T04:50:02;23.75;;;11.48;;
69712;SDS011;56980;51.826;4.424;2022-11-11T04:52:29;27.08;;;11.35;;
69712;SDS011;56980;51.826;4.424;2022-11-11T04:54:56;21.45;;;10.95;;
69712;SDS011;56980;51.826;4.424;2022-11-11T04:57:42;23.17;;;12.50;;
69712;SDS011;56980;51.826;4.424;2022-11-11T05:00:10;22.80;;;11.80;;
69712;SDS011;56980;51.826;4.424;2022-11-11T05:02:39;31.92;;;13.07;;
69712;SDS011;56980;51.826;4.424;2022-11-11T05:05:23;23.42;;;12.40;;
69712;SDS011;56980;51.826;4.424;2022-11-11T05:07:49;30.02;;;11.95;;
69712;SDS011;56980;51.826;4.424;2022-11-11T05:10:34;27.30;;;12.80;;
69712;SDS011;56980;51.826;4.424;2022-11-11T05:12:59;26.93;;;12.73;;
69712;SDS011;56980;51.826;4.424;2022-11-11T05:15:44;25.27;;;12.68;;
69712;SDS011;56980;51.826;4.424;2022-11-11T05:18:27;26.98;;;13.13;;
69712;SDS011;56980;51.826;4.424;2022-11-11T05:21:13;24.48;;;12.57;;
69712;SDS011;56980;51.826;4.424;2022-11-11T05:23:44;27.10;;;12.37;;
69712;SDS011;56980;51.826;4.424;2022-11-11T05:26:28;25.73;;;12.35;;
69712;SDS011;56980;51.826;4.424;2022-11-11T05:28:55;24.20;;;11.68;;
69712;SDS011;56980;51.826;4.424;2022-11-11T05:31:20;27.43;;;13.23;;
69712;SDS011;56980;51.826;4.424;2022-11-11T05:33:46;22.67;;;12.10;;
69712;SDS011;56980;51.826;4.424;2022-11-11T05:36:11;26.30;;;12.43;;
69712;SDS011;56980;51.826;4.424;2022-11-11T05:38:37;26.00;;;11.97;;
69712;SDS011;56980;51.826;4.424;2022-11-11T05:41:02;23.70;;;11.43;;
69712;SDS011;56980;51.826;4.424;2022-11-11T05:43:27;26.87;;;12.80;;
69712;SDS011;56980;51.826;4.424;2022-11-11T05:45:53;26.33;;;12.95;;
69712;SDS011;56980;51.826;4.424;2022-11-11T05:48:18;27.88;;;12.52;;
69712;SDS011;56980;51.826;4.424;2022-11-11T05:50:43;27.30;;;12.83;;
69712;SDS011;56980;51.826;4.424;2022-11-11T05:53:09;35.53;;;12.83;;
69712;SDS011;56980;51.826;4.424;2022-11-11T05:55:34;28.43;;;13.00;;
69712;SDS011;56980;51.826;4.424;2022-11-11T05:58:00;24.30;;;12.57;;
69712;SDS011;56980;51.826;4.424;2022-11-11T06:00:25;25.33;;;12.60;;
69712;SDS011;56980;51.826;4.424;2022-11-11T06:02:50;25.90;;;12.13;;
69712;SDS011;56980;51.826;4.424;2022-11-11T06:05:16;28.30;;;12.73;;
69712;SDS011;56980;51.826;4.424;2022-11-11T06:07:41;27.37;;;12.13;;
69712;SDS011;56980;51.826;4.424;2022-11-11T06:10:07;23.57;;;11.67;;
69712;SDS011;56980;51.826;4.424;2022-11-11T06:12:52;26.23;;;12.18;;
69712;SDS011;56980;51.826;4.424;2022-11-11T06:15:28;22.23;;;12.13;;
69712;SDS011;56980;51.826;4.424;2022-11-11T06:17:55;26.20;;;11.97;;
69712;SDS011;56980;51.826;4.424;2022-11-11T06:20:20;31.38;;;12.38;;
69712;SDS011;56980;51.826;4.424;2022-11-11T06:22:45;22.73;;;11.37;;
69712;SDS011;56980;51.826;4.424;2022-11-11T06:25:20;22.60;;;11.23;;
69712;SDS011;56980;51.826;4.424;2022-11-11T06:28:04;22.23;;;10.80;;
69712;SDS011;56980;51.826;4.424;2022-11-11T06:30:29;22.53;;;11.30;;
69712;SDS011;56980;51.826;4.424;2022-11-11T06:32:55;27.02;;;12.55;;
69712;SDS011;56980;51.826;4.424;2022-11-11T06:35:20;22.03;;;11.73;;
69712;SDS011;56980;51.826;4.424;2022-11-11T06:37:45;21.47;;;11.40;;
69712;SDS011;56980;51.826;4.424;2022-11-11T06:40:11;25.40;;;12.00;;
69712;SDS011;56980;51.826;4.424;2022-11-11T06:42:36;22.73;;;11.50;;
69712;SDS011;56980;51.826;4.424;2022-11-11T06:45:02;23.02;;;10.95;;
69712;SDS011;56980;51.826;4.424;2022-11-11T06:47:27;26.63;;;11.50;;
69712;SDS011;56980;51.826;4.424;2022-11-11T06:49:53;20.60;;;11.48;;
69712;SDS011;56980;51.826;4.424;2022-11-11T06:52:18;22.15;;;11.45;;
69712;SDS011;56980;51.826;4.424;2022-11-11T06:54:43;24.13;;;11.30;;
69712;SDS011;56980;51.826;4.424;2022-11-11T06:57:09;22.57;;;11.47;;
69712;SDS011;56980;51.826;4.424;2022-11-11T06:59:34;24.53;;;12.50;;
69712;SDS011;56980;51.826;4.424;2022-11-11T07:01:59;24.90;;;12.10;;
69712;SDS011;56980;51.826;4.424;2022-11-11T07:04:25;23.77;;;12.27;;
69712;SDS011;56980;51.826;4.424;2022-11-11T07:06:50;23.65;;;11.18;;
69712;SDS011;56980;51.826;4.424;2022-11-11T07:09:15;20.53;;;10.73;;
69712;SDS011;56980;51.826;4.424;2022-11-11T07:11:41;19.63;;;10.97;;
69712;SDS011;56980;51.826;4.424;2022-11-11T07:14:06;21.13;;;11.60;;
69712;SDS011;56980;51.826;4.424;2022-11-11T07:16:32;22.00;;;10.97;;
69712;SDS011;56980;51.826;4.424;2022-11-11T07:18:57;22.83;;;11.60;;
69712;SDS011;56980;51.826;4.424;2022-11-11T07:21:22;23.60;;;11.27;;
69712;SDS011;56980;51.826;4.424;2022-11-11T07:23:47;26.60;;;11.07;;
69712;SDS011;56980;51.826;4.424;2022-11-11T07:26:13;23.17;;;11.40;;
69712;SDS011;56980;51.826;4.424;2022-11-11T07:28:38;23.02;;;11.85;;
69712;SDS011;56980;51.826;4.424;2022-11-11T07:31:03;20.80;;;11.33;;
69712;SDS011;56980;51.826;4.424;2022-11-11T07:33:29;23.13;;;11.90;;
69712;SDS011;56980;51.826;4.424;2022-11-11T07:35:54;21.57;;;12.17;;
69712;SDS011;56980;51.826;4.424;2022-11-11T07:38:19;21.90;;;11.70;;
69712;SDS011;56980;51.826;4.424;2022-11-11T07:40:45;25.80;;;12.83;;
69712;SDS011;56980;51.826;4.424;2022-11-11T07:43:10;23.60;;;12.17;;
69712;SDS011;56980;51.826;4.424;2022-11-11T07:45:35;24.73;;;13.18;;
69712;SDS011;56980;51.826;4.424;2022-11-11T07:48:01;27.38;;;12.40;;
69712;SDS011;56980;51.826;4.424;2022-11-11T07:50:26;24.77;;;12.37;;
69712;SDS011;56980;51.826;4.424;2022-11-11T07:52:52;24.13;;;12.27;;
69712;SDS011;56980;51.826;4.424;2022-11-11T07:55:18;27.33;;;12.07;;
69712;SDS011;56980;51.826;4.424;2022-11-11T07:57:43;26.07;;;13.07;;
69712;SDS011;56980;51.826;4.424;2022-11-11T08:00:09;25.55;;;12.07;;
69712;SDS011;56980;51.826;4.424;2022-11-11T08:02:34;25.67;;;12.23;;
69712;SDS011;56980;51.826;4.424;2022-11-11T08:05:00;28.17;;;12.33;;
69712;SDS011;56980;51.826;4.424;2022-11-11T08:07:25;26.13;;;13.35;;
69712;SDS011;56980;51.826;4.424;2022-11-11T08:09:51;28.97;;;13.37;;
69712;SDS011;56980;51.826;4.424;2022-11-11T08:12:16;31.90;;;13.27;;
69712;SDS011;56980;51.826;4.424;2022-11-11T08:15:00;26.35;;;13.60;;
69712;SDS011;56980;51.826;4.424;2022-11-11T08:17:25;25.70;;;12.70;;
69712;SDS011;56980;51.826;4.424;2022-11-11T08:19:51;27.07;;;12.70;;
69712;SDS011;56980;51.826;4.424;2022-11-11T08:22:16;24.33;;;13.30;;
69712;SDS011;56980;51.826;4.424;2022-11-11T08:24:41;23.52;;;12.80;;
69712;SDS011;56980;51.826;4.424;2022-11-11T08:27:07;27.75;;;13.48;;
69712;SDS011;56980;51.826;4.424;2022-11-11T08:29:33;23.30;;;12.77;;
69712;SDS011;56980;51.826;4.424;2022-11-11T08:31:59;24.27;;;11.50;;
69712;SDS011;56980;51.826;4.424;2022-11-11T08:34:28;28.53;;;11.57;;
69712;SDS011;56980;51.826;4.424;2022-11-11T08:36:54;26.90;;;12.85;;
69712;SDS011;56980;51.826;4.424;2022-11-11T08:39:19;20.50;;;11.70;;
69712;SDS011;56980;51.826;4.424;2022-11-11T08:41:44;22.20;;;11.40;;
69712;SDS011;56980;51.826;4.424;2022-11-11T08:44:10;21.93;;;11.60;;
69712;SDS011;56980;51.826;4.424;2022-11-11T08:46:35;23.83;;;11.83;;
69712;SDS011;56980;51.826;4.424;2022-11-11T08:49:00;25.40;;;11.43;;
69712;SDS011;56980;51.826;4.424;2022-11-11T08:51:26;21.73;;;11.55;;
69712;SDS011;56980;51.826;4.424;2022-11-11T08:53:51;23.75;;;11.98;;
69712;SDS011;56980;51.826;4.424;2022-11-11T08:56:16;25.13;;;12.73;;
69712;SDS011;56980;51.826;4.424;2022-11-11T08:58:42;25.40;;;11.90;;
69712;SDS011;56980;51.826;4.424;2022-11-11T09:01:11;21.10;;;12.10;;
69712;SDS011;56980;51.826;4.424;2022-11-11T09:03:38;24.45;;;12.95;;
69712;SDS011;56980;51.826;4.424;2022-11-11T09:06:05;24.25;;;12.45;;
69712;SDS011;56980;51.826;4.424;2022-11-11T09:08:30;24.73;;;12.03;;
69712;SDS011;56980;51.826;4.424;2022-11-11T09:10:56;22.60;;;11.63;;
69712;SDS011;56980;51.826;4.424;2022-11-11T09:13:22;24.60;;;10.82;;
69712;SDS011;56980;51.826;4.424;2022-11-11T09:15:48;24.47;;;12.27;;
69712;SDS011;56980;51.826;4.424;2022-11-11T09:18:13;23.10;;;10.43;;
69712;SDS011;56980;51.826;4.424;2022-11-11T09:20:38;25.00;;;12.47;;
69712;SDS011;56980;51.826;4.424;2022-11-11T09:23:04;22.55;;;11.25;;
69712;SDS011;56980;51.826;4.424;2022-11-11T09:25:29;24.92;;;12.15;;
69712;SDS011;56980;51.826;4.424;2022-11-11T09:27:57;21.38;;;11.23;;
69712;SDS011;56980;51.826;4.424;2022-11-11T09:30:24;18.15;;;11.05;;
69712;SDS011;56980;51.826;4.424;2022-11-11T09:32:50;22.77;;;10.52;;
69712;SDS011;56980;51.826;4.424;2022-11-11T09:35:16;22.75;;;11.20;;
69712;SDS011;56980;51.826;4.424;2022-11-11T09:37:51;24.35;;;11.38;;
69712;SDS011;56980;51.826;4.424;2022-11-11T09:40:18;23.40;;;10.82;;
69712;SDS011;56980;51.826;4.424;2022-11-11T09:43:33;23.50;;;10.00;;
69712;SDS011;56980;51.826;4.424;2022-11-11T09:48:37;22.13;;;10.70;;
69712;SDS011;56980;51.826;4.424;2022-11-11T09:51:20;18.75;;;9.00;;
69712;SDS011;56980;51.826;4.424;2022-11-11T09:54:00;19.92;;;9.55;;
69712;SDS011;56980;51.826;4.424;2022-11-11T09:56:32;18.13;;;10.32;;
69712;SDS011;56980;51.826;4.424;2022-11-11T09:59:04;18.63;;;9.77;;
69712;SDS011;56980;51.826;4.424;2022-11-11T10:01:39;20.83;;;10.33;;
69712;SDS011;56980;51.826;4.424;2022-11-11T10:06:47;22.23;;;11.00;;
69712;SDS011;56980;51.826;4.424;2022-11-11T10:09:21;18.88;;;10.18;;
69712;SDS011;56980;51.826;4.424;2022-11-11T10:14:37;18.33;;;9.33;;
69712;SDS011;56980;51.826;4.424;2022-11-11T10:17:24;20.33;;;9.20;;
69712;SDS011;56980;51.826;4.424;2022-11-11T10:22:42;19.23;;;9.60;;
69712;SDS011;56980;51.826;4.424;2022-11-11T10:27:41;17.70;;;9.47;;
69712;SDS011;56980;51.826;4.424;2022-11-11T10:30:27;18.38;;;9.10;;
69712;SDS011;56980;51.826;4.424;2022-11-11T10:32:58;19.70;;;9.07;;
69712;SDS011;56980;51.826;4.424;2022-11-11T10:35:27;20.73;;;9.35;;
69712;SDS011;56980;51.826;4.424;2022-11-11T10:38:18;21.13;;;9.27;;
69712;SDS011;56980;51.826;4.424;2022-11-11T10:41:26;23.13;;;9.07;;
69712;SDS011;56980;51.826;4.424;2022-11-11T10:44:01;16.52;;;8.55;;
69712;SDS011;56980;51.826;4.424;2022-11-11T10:46:50;17.15;;;8.93;;
69712;SDS011;56980;51.826;4.424;2022-11-11T10:49:20;18.27;;;9.55;;
69712;SDS011;56980;51.826;4.424;2022-11-11T10:51:56;18.60;;;9.35;;
69712;SDS011;56980;51.826;4.424;2022-11-11T10:57:13;32.17;;;10.25;;
69712;SDS011;56980;51.826;4.424;2022-11-11T11:00:04;21.17;;;10.02;;
69712;SDS011;56980;51.826;4.424;2022-11-11T11:02:50;17.25;;;9.25;;
69712;SDS011;56980;51.826;4.424;2022-11-11T11:08:29;24.77;;;9.50;;
69712;SDS011;56980;51.826;4.424;2022-11-11T11:11:08;17.60;;;9.80;;
69712;SDS011;56980;51.826;4.424;2022-11-11T11:13:44;17.05;;;9.60;;
69712;SDS011;56980;51.826;4.424;2022-11-11T11:16:16;19.67;;;8.80;;
69712;SDS011;56980;51.826;4.424;2022-11-11T11:18:44;16.95;;;9.20;;
69712;SDS011;56980;51.826;4.424;2022-11-11T11:24:22;16.80;;;8.77;;
69712;SDS011;56980;51.826;4.424;2022-11-11T11:26:54;14.55;;;9.23;;
69712;SDS011;56980;51.826;4.424;2022-11-11T11:29:38;15.57;;;8.27;;
69712;SDS011;56980;51.826;4.424;2022-11-11T11:34:49;15.90;;;9.07;;
69712;SDS011;56980;51.826;4.424;2022-11-11T11:37:17;17.67;;;8.80;;
69712;SDS011;56980;51.826;4.424;2022-11-11T11:39:43;14.52;;;8.38;;
69712;SDS011;56980;51.826;4.424;2022-11-11T11:45:14;15.60;;;7.85;;
69712;SDS011;56980;51.826;4.424;2022-11-11T11:50:46;16.63;;;7.68;;
69712;SDS011;56980;51.826;4.424;2022-11-11T11:53:24;15.65;;;7.32;;
69712;SDS011;56980;51.826;4.424;2022-11-11T12:02:40;13.07;;;6.53;;
69712;SDS011;56980;51.826;4.424;2022-11-11T12:05:17;11.93;;;6.57;;
69712;SDS011;56980;51.826;4.424;2022-11-11T12:23:56;11.40;;;5.87;;
69712;SDS011;56980;51.826;4.424;2022-11-11T12:26:50;11.35;;;5.05;;
69712;SDS011;56980;51.826;4.424;2022-11-11T12:32:22;11.35;;;5.65;;
69712;SDS011;56980;51.826;4.424;2022-11-11T12:53:53;28.25;;;6.13;;
69712;SDS011;56980;51.826;4.424;2022-11-11T12:56:44;10.05;;;4.47;;
69712;SDS011;56980;51.826;4.424;2022-11-11T12:59:17;11.80;;;4.90;;
69712;SDS011;56980;51.826;4.424;2022-11-11T13:12:44;8.35;;;4.10;;
69712;SDS011;56980;51.826;4.424;2022-11-11T13:15:22;7.57;;;4.35;;
69712;SDS011;56980;51.826;4.424;2022-11-11T13:17:49;7.07;;;3.77;;
69712;SDS011;56980;51.826;4.424;2022-11-11T13:23:20;10.63;;;4.47;;
69712;SDS011;56980;51.826;4.424;2022-11-11T13:25:46;9.80;;;3.83;;
69712;SDS011;56980;51.826;4.424;2022-11-11T13:28:20;8.38;;;4.15;;
69712;SDS011;56980;51.826;4.424;2022-11-11T13:33:37;9.73;;;4.03;;
69712;SDS011;56980;51.826;4.424;2022-11-11T13:36:07;6.60;;;4.15;;
69712;SDS011;56980;51.826;4.424;2022-11-11T13:38:38;10.18;;;3.97;;
69712;SDS011;56980;51.826;4.424;2022-11-11T13:41:25;7.30;;;3.65;;
69712;SDS011;56980;51.826;4.424;2022-11-11T13:43:54;14.80;;;3.63;;
69712;SDS011;56980;51.826;4.424;2022-11-11T13:46:29;8.60;;;4.10;;
69712;SDS011;56980;51.826;4.424;2022-11-11T13:49:18;6.72;;;3.70;;
69712;SDS011;56980;51.826;4.424;2022-11-11T13:51:56;6.85;;;3.17;;
69712;SDS011;56980;51.826;4.424;2022-11-11T13:57:07;8.85;;;4.10;;
69712;SDS011;56980;51.826;4.424;2022-11-11T13:59:43;8.45;;;4.30;;
69712;SDS011;56980;51.826;4.424;2022-11-11T14:05:13;10.70;;;3.85;;
69712;SDS011;56980;51.826;4.424;2022-11-11T14:13:34;8.85;;;3.70;;
69712;SDS011;56980;51.826;4.424;2022-11-11T14:15:46;6.97;;;3.40;;
69712;SDS011;56980;51.826;4.424;2022-11-11T14:20:42;12.32;;;3.45;;
69712;SDS011;56980;51.826;4.424;2022-11-11T14:28:31;10.70;;;3.83;;
69712;SDS011;56980;51.826;4.424;2022-11-11T14:33:51;7.78;;;4.05;;
69712;SDS011;56980;51.826;4.424;2022-11-11T14:39:46;8.75;;;4.00;;
69712;SDS011;56980;51.826;4.424;2022-11-11T14:46:00;7.53;;;3.90;;
69712;SDS011;56980;51.826;4.424;2022-11-11T14:47:54;6.85;;;3.63;;
69712;SDS011;56980;51.826;4.424;2022-11-11T14:52:54;10.75;;;4.57;;
69712;SDS011;56980;51.826;4.424;2022-11-11T14:55:27;7.97;;;4.57;;
69712;SDS011;56980;51.826;4.424;2022-11-11T14:58:09;7.40;;;4.00;;
69712;SDS011;56980;51.826;4.424;2022-11-11T15:00:48;12.50;;;5.70;;
69712;SDS011;56980;51.826;4.424;2022-11-11T15:03:35;11.98;;;5.63;;
69712;SDS011;56980;51.826;4.424;2022-11-11T15:09:29;11.15;;;5.82;;
69712;SDS011;56980;51.826;4.424;2022-11-11T15:12:18;13.27;;;5.90;;
69712;SDS011;56980;51.826;4.424;2022-11-11T15:14:53;15.88;;;5.90;;
69712;SDS011;56980;51.826;4.424;2022-11-11T15:23:13;13.45;;;6.20;;
69712;SDS011;56980;51.826;4.424;2022-11-11T15:28:54;14.93;;;7.10;;
69712;SDS011;56980;51.826;4.424;2022-11-11T15:34:20;12.63;;;6.68;;
69712;SDS011;56980;51.826;4.424;2022-11-11T15:37:09;13.00;;;6.22;;
69712;SDS011;56980;51.826;4.424;2022-11-11T15:39:45;13.90;;;7.45;;
69712;SDS011;56980;51.826;4.424;2022-11-11T15:45:00;12.43;;;7.40;;
69712;SDS011;56980;51.826;4.424;2022-11-11T15:47:28;17.27;;;7.47;;
69712;SDS011;56980;51.826;4.424;2022-11-11T15:50:00;13.50;;;7.20;;
69712;SDS011;56980;51.826;4.424;2022-11-11T15:52:27;18.13;;;7.47;;
69712;SDS011;56980;51.826;4.424;2022-11-11T15:54:57;13.50;;;6.78;;
69712;SDS011;56980;51.826;4.424;2022-11-11T15:57:30;19.83;;;7.73;;
69712;SDS011;56980;51.826;4.424;2022-11-11T15:59:58;11.48;;;6.80;;
69712;SDS011;56980;51.826;4.424;2022-11-11T16:02:32;17.45;;;8.50;;
69712;SDS011;56980;51.826;4.424;2022-11-11T16:05:15;18.05;;;8.77;;
69712;SDS011;56980;51.826;4.424;2022-11-11T16:07:45;17.88;;;8.45;;
69712;SDS011;56980;51.826;4.424;2022-11-11T16:10:13;16.20;;;8.60;;
69712;SDS011;56980;51.826;4.424;2022-11-11T16:12:45;20.05;;;10.30;;
69712;SDS011;56980;51.826;4.424;2022-11-11T16:15:22;22.02;;;10.38;;
69712;SDS011;56980;51.826;4.424;2022-11-11T16:17:53;21.75;;;10.95;;
69712;SDS011;56980;51.826;4.424;2022-11-11T16:20:27;21.98;;;10.50;;
69712;SDS011;56980;51.826;4.424;2022-11-11T16:22:59;18.93;;;9.77;;
69712;SDS011;56980;51.826;4.424;2022-11-11T16:25:29;19.92;;;9.88;;
69712;SDS011;56980;51.826;4.424;2022-11-11T16:27:55;20.13;;;9.75;;
69712;SDS011;56980;51.826;4.424;2022-11-11T16:30:28;23.60;;;10.63;;
69712;SDS011;56980;51.826;4.424;2022-11-11T16:32:57;17.70;;;9.60;;
69712;SDS011;56980;51.826;4.424;2022-11-11T16:35:24;26.40;;;10.40;;
69712;SDS011;56980;51.826;4.424;2022-11-11T16:37:53;19.88;;;9.68;;
69712;SDS011;56980;51.826;4.424;2022-11-11T16:45:47;15.52;;;8.60;;
69712;SDS011;56980;51.826;4.424;2022-11-11T16:51:04;15.70;;;8.48;;
69712;SDS011;56980;51.826;4.424;2022-11-11T16:53:33;14.85;;;8.10;;
69712;SDS011;56980;51.826;4.424;2022-11-11T16:56:03;14.48;;;8.32;;
69712;SDS011;56980;51.826;4.424;2022-11-11T16:58:31;16.77;;;8.18;;
69712;SDS011;56980;51.826;4.424;2022-11-11T17:01:06;14.90;;;8.33;;
69712;SDS011;56980;51.826;4.424;2022-11-11T17:03:32;15.25;;;8.63;;
69712;SDS011;56980;51.826;4.424;2022-11-11T17:11:04;23.10;;;10.30;;
69712;SDS011;56980;51.826;4.424;2022-11-11T17:13:32;27.35;;;10.43;;
69712;SDS011;56980;51.826;4.424;2022-11-11T17:18:32;19.25;;;10.35;;
69712;SDS011;56980;51.826;4.424;2022-11-11T17:23:58;82.13;;;18.02;;
69712;SDS011;56980;51.826;4.424;2022-11-11T17:26:23;78.22;;;15.43;;
69712;SDS011;56980;51.826;4.424;2022-11-11T17:28:51;58.00;;;15.45;;
69712;SDS011;56980;51.826;4.424;2022-11-11T17:31:17;36.33;;;12.75;;
69712;SDS011;56980;51.826;4.424;2022-11-11T17:33:42;35.90;;;12.23;;
69712;SDS011;56980;51.826;4.424;2022-11-11T17:36:08;34.53;;;13.03;;